Accueil
METAR-TAF:

METAR-TAF

Aéroports :

Aéroport de Tours-Val de Loire

Tours, France

latitude: 47-27N, longitude: 000-43E, altitude: 108 m

Observation

Le bulletin a été fait il y a 42 minutes, à 20:00 UTC
Vent 2 kt de nord/nord-est
Température 12°C
Humidité 71%
Pression 1029 hPa
Visibilité 10 km ou plus
pas de nuages en-dessous de 1500 mètres et pas de cumulonimbus.

METAR: LFOT 062000Z AUTO 03002KT CAVOK 12/07 Q1029 NOSIG

Heure: 22:42 (20:42 UTC)

Prévision

Le bulletin a été fait il y a 3 heures et 42 minutes, à 17:00 UTC
Prévision valable du 06 à 18 UTC au 07 à 18 UTC
Vent 4 kt de est/nord-est
Visibilité 10 km ou plus
pas de nuages en-dessous de 1500 mètres et pas de cumulonimbus.
Probabilité 30% :
Temporairement
du 07 à 03 UTC au 07 à 07 UTC
Visibilité: 4000 m
brume

TAF: LFOT 061700Z 0618/0718 07004KT CAVOK PROB30 TEMPO 0703/0707 4000 BR

Observations et prévisions météorologiques de plus de 4000 aéroports (messages METAR et TAF).

Les stations disponibles sont représentées par des disques jaunes et rouges sur la carte.

Passer la souris dessus pour voir le nom de la station.

Cliquer dessus pour voir les observations et prévisions météorologiques.

Pour changer de carte: cliquez sur les boutons verts avec une croix noire pour zoomer, sur le bouton vert avec un tiret pour effectuer un zoom arrière, ou sur les flèches vertes pour les cartes adjacentes.


METAR-TAF: